createdAt,value
2018-06-27T00:00:59.755Z,97.60
2018-06-27T00:03:28.370Z,97.70
2018-06-27T00:05:56.815Z,97.70
2018-06-27T00:08:25.235Z,97.70
2018-06-27T00:10:53.676Z,97.80
2018-06-27T00:13:22.121Z,97.90
2018-06-27T00:15:50.546Z,97.80
2018-06-27T00:18:18.989Z,97.80
2018-06-27T00:20:47.401Z,97.90
2018-06-27T00:23:15.867Z,97.80
2018-06-27T00:25:44.285Z,97.80
2018-06-27T00:28:12.718Z,97.70
2018-06-27T00:30:41.180Z,97.80
2018-06-27T00:33:09.604Z,97.80
2018-06-27T00:35:38.231Z,97.90
2018-06-27T00:38:12.112Z,97.90
2018-06-27T00:43:08.679Z,97.90
2018-06-27T00:45:37.170Z,97.80
2018-06-27T00:48:05.932Z,97.80
2018-06-27T00:50:34.510Z,98.00
2018-06-27T00:53:02.908Z,98.00
2018-06-27T00:55:31.765Z,97.90
2018-06-27T00:58:00.279Z,97.80
2018-06-27T01:00:36.407Z,97.80
2018-06-27T01:03:04.905Z,97.80
2018-06-27T01:05:33.415Z,97.80
2018-06-27T01:08:01.855Z,98.00
2018-06-27T01:10:30.408Z,98.00
2018-06-27T01:12:58.881Z,97.90
2018-06-27T01:15:27.287Z,98.00
2018-06-27T01:17:56.978Z,98.00
2018-06-27T01:20:25.995Z,98.00
2018-06-27T01:22:54.419Z,97.70
2018-06-27T01:25:22.879Z,97.70
2018-06-27T01:27:51.323Z,97.40
2018-06-27T01:30:19.791Z,96.90
2018-06-27T01:32:48.296Z,96.90
2018-06-27T01:35:16.767Z,96.80
2018-06-27T01:37:45.216Z,97.20
2018-06-27T01:40:13.748Z,97.10
2018-06-27T01:42:42.197Z,96.80
2018-06-27T01:45:10.597Z,96.60
2018-06-27T01:47:39.041Z,96.80
2018-06-27T01:50:07.500Z,97.40
2018-06-27T01:52:36.060Z,98.40
2018-06-27T01:55:04.939Z,98.70
2018-06-27T01:57:33.352Z,98.50
2018-06-27T02:00:02.131Z,99.20
2018-06-27T02:02:30.827Z,99.40
2018-06-27T02:04:59.248Z,99.50
2018-06-27T02:07:27.738Z,99.50
2018-06-27T02:09:56.198Z,98.90
2018-06-27T02:12:24.610Z,99.00
2018-06-27T02:14:53.032Z,98.60
2018-06-27T02:17:21.460Z,98.50
2018-06-27T02:19:49.895Z,98.80
2018-06-27T02:22:18.332Z,98.70
2018-06-27T02:24:46.752Z,98.60
2018-06-27T02:27:15.159Z,98.30
2018-06-27T02:29:43.888Z,98.50
2018-06-27T02:32:12.576Z,98.30
2018-06-27T02:34:41.060Z,97.90
2018-06-27T02:37:09.476Z,98.30
2018-06-27T02:39:37.900Z,97.80
2018-06-27T02:42:06.424Z,97.50
2018-06-27T02:44:34.850Z,97.50
2018-06-27T02:47:03.272Z,97.30
2018-06-27T02:49:31.716Z,96.90
2018-06-27T02:52:00.236Z,97.10
2018-06-27T02:54:28.837Z,97.30
2018-06-27T02:56:57.258Z,97.60
2018-06-27T02:59:25.700Z,97.90
2018-06-27T03:01:54.216Z,97.60
2018-06-27T03:04:22.800Z,97.30
2018-06-27T03:06:51.278Z,97.80
2018-06-27T03:09:19.695Z,98.50
2018-06-27T03:11:48.154Z,98.90
2018-06-27T03:14:16.570Z,99.20
2018-06-27T03:16:45.023Z,99.50
2018-06-27T03:19:13.432Z,99.70
2018-06-27T03:21:41.893Z,99.90
2018-06-27T03:24:10.323Z,99.90
2018-06-27T03:26:38.834Z,99.90
2018-06-27T03:29:07.299Z,99.90
2018-06-27T03:31:35.881Z,99.90
2018-06-27T03:34:04.353Z,99.90
2018-06-27T03:36:32.764Z,99.90
2018-06-27T03:39:01.251Z,99.90
2018-06-27T03:41:29.901Z,99.90
2018-06-27T03:43:58.338Z,99.90
2018-06-27T03:46:26.778Z,99.90
2018-06-27T03:48:55.276Z,99.90
2018-06-27T03:51:23.680Z,99.90
2018-06-27T03:53:57.628Z,99.90
2018-06-27T03:56:26.620Z,99.90
2018-06-27T03:58:55.104Z,99.80
2018-06-27T04:01:23.734Z,99.70
2018-06-27T04:03:54.481Z,99.80
2018-06-27T04:06:22.974Z,99.90
2018-06-27T04:08:51.414Z,99.20
2018-06-27T04:11:20.191Z,98.80
2018-06-27T04:13:48.646Z,98.40
2018-06-27T04:16:17.185Z,98.30
2018-06-27T04:18:45.949Z,98.20
2018-06-27T04:21:14.361Z,97.80
2018-06-27T04:23:42.924Z,98.80
2018-06-27T04:26:11.403Z,98.80
2018-06-27T04:28:40.061Z,98.90
2018-06-27T04:31:08.512Z,98.90
2018-06-27T04:33:36.949Z,98.70
2018-06-27T04:36:05.564Z,98.30
2018-06-27T04:38:33.933Z,97.80
2018-06-27T04:41:02.412Z,96.40
2018-06-27T04:43:30.872Z,96.00
2018-06-27T04:48:27.572Z,94.60
2018-06-27T04:50:56.078Z,94.30
2018-06-27T04:53:24.689Z,94.20
2018-06-27T04:55:53.145Z,94.10
2018-06-27T04:58:21.666Z,94.10
2018-06-27T05:00:50.213Z,93.80
2018-06-27T05:03:18.677Z,93.70
2018-06-27T05:05:47.095Z,93.60
2018-06-27T05:08:15.576Z,93.40
2018-06-27T05:10:44.023Z,93.10
2018-06-27T05:13:12.502Z,93.10
2018-06-27T05:15:40.969Z,92.90
2018-06-27T05:18:09.514Z,92.70
2018-06-27T05:23:06.112Z,92.60
2018-06-27T05:25:34.550Z,92.60
2018-06-27T05:28:03.218Z,92.50
2018-06-27T05:30:31.902Z,92.30
2018-06-27T05:33:00.296Z,92.00
2018-06-27T05:35:28.702Z,92.10
2018-06-27T05:37:57.228Z,91.60
2018-06-27T05:40:27.030Z,91.30
2018-06-27T05:42:55.456Z,91.60
2018-06-27T05:45:24.428Z,91.50
2018-06-27T05:47:52.908Z,91.20
2018-06-27T05:50:21.380Z,91.10
2018-06-27T05:52:49.860Z,90.70
2018-06-27T05:55:18.324Z,90.40
2018-06-27T05:57:46.829Z,90.10
2018-06-27T06:00:15.316Z,89.60
2018-06-27T06:02:43.778Z,88.70
2018-06-27T06:05:12.180Z,88.30
2018-06-27T06:07:40.637Z,87.50
2018-06-27T06:10:09.165Z,87.20
2018-06-27T06:12:37.620Z,86.80
2018-06-27T06:15:06.130Z,86.00
2018-06-27T06:17:34.596Z,86.00
2018-06-27T06:20:03.084Z,85.20
2018-06-27T06:22:31.728Z,84.50
2018-06-27T06:25:00.275Z,84.20
2018-06-27T06:27:28.728Z,83.80
2018-06-27T06:29:57.184Z,83.60
2018-06-27T06:32:25.750Z,83.00
2018-06-27T06:34:54.184Z,82.10
2018-06-27T06:37:22.574Z,81.50
2018-06-27T06:39:50.982Z,80.70
2018-06-27T06:42:19.405Z,80.20
2018-06-27T06:44:47.841Z,80.90
2018-06-27T06:47:16.315Z,80.10
2018-06-27T06:49:44.750Z,79.80
2018-06-27T06:52:13.237Z,79.60
2018-06-27T06:54:41.639Z,79.40
2018-06-27T06:57:10.111Z,80.40
2018-06-27T06:59:38.541Z,79.50
2018-06-27T07:02:06.963Z,78.50
2018-06-27T07:04:35.407Z,77.50
2018-06-27T07:07:03.984Z,77.50
2018-06-27T07:09:32.465Z,76.40
2018-06-27T07:12:00.911Z,75.30
2018-06-27T07:14:29.423Z,75.40
2018-06-27T07:16:57.851Z,75.60
2018-06-27T07:19:26.486Z,75.00
2018-06-27T07:21:54.917Z,74.80
2018-06-27T07:24:23.907Z,75.10
2018-06-27T07:26:52.347Z,75.60
2018-06-27T07:29:20.806Z,75.20
2018-06-27T07:31:49.403Z,74.70
2018-06-27T07:34:17.807Z,73.90
2018-06-27T07:36:46.281Z,73.90
2018-06-27T07:39:14.785Z,72.40
2018-06-27T07:41:44.211Z,71.70
2018-06-27T07:44:12.680Z,71.70
2018-06-27T07:46:41.103Z,71.00
2018-06-27T07:49:09.567Z,70.70
2018-06-27T07:51:38.016Z,70.00
2018-06-27T07:54:07.387Z,70.40
2018-06-27T07:56:35.815Z,70.10
2018-06-27T07:59:04.551Z,68.30
2018-06-27T08:01:33.057Z,66.70
2018-06-27T08:04:01.533Z,65.80
2018-06-27T08:06:41.087Z,64.70
2018-06-27T08:09:10.551Z,64.10
2018-06-27T08:11:39.496Z,64.10
2018-06-27T08:14:08.312Z,64.00
2018-06-27T08:16:37.177Z,61.20
2018-06-27T08:19:05.635Z,61.80
2018-06-27T08:21:34.576Z,60.80
2018-06-27T08:24:03.266Z,61.30
2018-06-27T08:26:31.805Z,60.30
2018-06-27T08:29:00.358Z,59.90
2018-06-27T08:31:28.777Z,60.90
2018-06-27T08:33:57.237Z,61.40
2018-06-27T08:36:25.693Z,61.00
2018-06-27T08:38:54.238Z,60.50
2018-06-27T08:41:23.688Z,60.20
2018-06-27T08:43:52.231Z,59.10
2018-06-27T08:46:20.815Z,60.30
2018-06-27T08:51:17.685Z,58.80
2018-06-27T08:53:46.174Z,58.40
2018-06-27T08:56:14.619Z,57.70
2018-06-27T08:58:43.058Z,58.10
2018-06-27T09:01:11.741Z,56.00
2018-06-27T09:03:40.175Z,57.30
2018-06-27T09:06:08.722Z,56.90
2018-06-27T09:08:37.201Z,57.20
2018-06-27T09:11:05.904Z,55.20
2018-06-27T09:13:34.331Z,54.50
2018-06-27T09:16:02.848Z,54.60
2018-06-27T09:18:31.300Z,56.40
2018-06-27T09:20:59.737Z,57.80
2018-06-27T09:23:28.220Z,57.60
2018-06-27T09:25:56.742Z,56.10
2018-06-27T09:28:25.198Z,56.10
2018-06-27T09:30:53.620Z,56.60
2018-06-27T09:33:22.044Z,56.00
2018-06-27T09:35:50.756Z,55.90
2018-06-27T09:38:19.240Z,56.80
2018-06-27T09:40:48.606Z,56.20
2018-06-27T09:43:17.047Z,56.70
2018-06-27T09:45:45.621Z,56.20
2018-06-27T09:48:14.011Z,55.90
2018-06-27T09:50:42.617Z,56.10
2018-06-27T09:53:10.983Z,56.90
2018-06-27T09:55:39.487Z,56.20
2018-06-27T09:58:08.179Z,56.40
2018-06-27T10:00:39.236Z,56.40
2018-06-27T10:03:08.776Z,54.20
2018-06-27T10:05:37.767Z,55.30
2018-06-27T10:08:06.480Z,53.90
2018-06-27T10:10:34.930Z,53.80
2018-06-27T10:13:03.392Z,53.80
2018-06-27T10:15:31.821Z,53.60
2018-06-27T10:18:00.328Z,53.70
2018-06-27T10:20:28.732Z,54.20
2018-06-27T10:22:57.264Z,54.90
2018-06-27T10:25:26.634Z,55.70
2018-06-27T10:27:55.220Z,55.40
2018-06-27T10:30:23.689Z,53.50
2018-06-27T10:32:52.227Z,52.10
2018-06-27T10:35:20.828Z,52.30
2018-06-27T10:37:49.256Z,52.50
2018-06-27T10:40:18.008Z,51.00
2018-06-27T10:42:46.607Z,50.80
2018-06-27T10:45:15.056Z,51.50
2018-06-27T10:47:43.529Z,51.00
2018-06-27T10:50:12.012Z,52.00
2018-06-27T10:52:40.488Z,52.10
2018-06-27T10:55:14.271Z,54.20
2018-06-27T10:57:42.761Z,53.70
2018-06-27T11:00:11.292Z,52.70
2018-06-27T11:02:39.756Z,53.00
2018-06-27T11:05:08.382Z,55.00
2018-06-27T11:07:36.829Z,57.30
2018-06-27T11:10:05.663Z,57.40
2018-06-27T11:12:34.430Z,57.60
2018-06-27T11:15:02.904Z,58.40
2018-06-27T11:17:31.339Z,57.60
2018-06-27T11:20:00.025Z,55.80
2018-06-27T11:22:28.482Z,56.30
2018-06-27T11:24:56.993Z,55.00
2018-06-27T11:27:25.432Z,55.10
2018-06-27T11:29:53.908Z,55.70
2018-06-27T11:32:22.318Z,56.40
2018-06-27T11:34:50.796Z,56.70
2018-06-27T11:37:19.248Z,57.00
2018-06-27T11:39:47.680Z,57.70
2018-06-27T11:42:16.306Z,57.00
2018-06-27T11:44:44.871Z,56.60
2018-06-27T11:47:13.527Z,55.90
2018-06-27T11:49:41.973Z,54.20
2018-06-27T11:52:11.368Z,51.70
2018-06-27T11:54:40.688Z,50.10
2018-06-27T11:57:09.576Z,50.90
2018-06-27T11:59:38.410Z,52.10
2018-06-27T12:02:06.865Z,53.00
2018-06-27T12:04:35.396Z,53.00
2018-06-27T12:07:03.847Z,52.70
2018-06-27T12:09:32.406Z,52.40
2018-06-27T12:12:00.840Z,53.00
2018-06-27T12:14:29.313Z,51.40
2018-06-27T12:16:57.836Z,52.60
2018-06-27T12:19:26.418Z,51.30
2018-06-27T12:21:55.208Z,50.90
2018-06-27T12:24:23.680Z,49.60
2018-06-27T12:26:52.116Z,49.20
2018-06-27T12:29:20.570Z,49.20
2018-06-27T12:31:49.010Z,47.90
2018-06-27T12:34:17.484Z,49.80
2018-06-27T12:36:45.924Z,50.60
2018-06-27T12:39:14.350Z,50.10
2018-06-27T12:41:42.808Z,49.90
2018-06-27T12:44:11.816Z,50.80
2018-06-27T12:46:40.297Z,50.30
2018-06-27T12:49:08.756Z,51.50
2018-06-27T12:51:37.358Z,51.80
2018-06-27T12:54:05.920Z,51.50
2018-06-27T12:56:34.419Z,51.40
2018-06-27T12:59:02.900Z,51.80
2018-06-27T13:01:31.363Z,51.60
2018-06-27T13:04:00.709Z,51.10
2018-06-27T13:06:29.287Z,51.80
2018-06-27T13:08:57.772Z,52.00
2018-06-27T13:11:26.128Z,50.80
2018-06-27T13:13:54.640Z,48.50
2018-06-27T13:16:23.060Z,49.40
2018-06-27T13:18:52.496Z,49.50
2018-06-27T13:21:21.051Z,49.70
2018-06-27T13:23:50.062Z,50.70
2018-06-27T13:26:18.457Z,50.20
2018-06-27T13:28:46.949Z,50.30
2018-06-27T13:31:15.341Z,50.00
2018-06-27T13:33:43.881Z,50.10
2018-06-27T13:36:12.565Z,49.40
2018-06-27T13:38:41.262Z,48.80
2018-06-27T13:41:09.765Z,49.40
2018-06-27T13:43:38.297Z,50.40
2018-06-27T13:46:06.788Z,50.80
2018-06-27T13:48:35.240Z,51.00
2018-06-27T13:51:04.065Z,51.00
2018-06-27T13:53:32.547Z,51.20
2018-06-27T13:56:01.116Z,50.00
2018-06-27T13:58:29.571Z,50.00
2018-06-27T14:00:58.024Z,48.80
2018-06-27T14:03:26.513Z,49.60
2018-06-27T14:05:54.961Z,49.50
2018-06-27T14:08:23.585Z,49.60
2018-06-27T14:10:52.241Z,49.60
2018-06-27T14:13:27.944Z,49.80
2018-06-27T14:15:56.688Z,48.80
2018-06-27T14:18:26.662Z,48.10
2018-06-27T14:20:55.089Z,47.60
2018-06-27T14:23:23.545Z,47.20
2018-06-27T14:25:52.009Z,46.40
2018-06-27T14:28:20.910Z,47.00
2018-06-27T14:30:49.389Z,46.90
2018-06-27T14:33:17.896Z,45.90
2018-06-27T14:35:46.471Z,45.50
2018-06-27T14:38:15.044Z,46.10
2018-06-27T14:40:43.517Z,46.00
2018-06-27T14:43:12.035Z,45.90
2018-06-27T14:45:40.534Z,46.40
2018-06-27T14:48:09.478Z,47.20
2018-06-27T14:50:38.306Z,47.90
2018-06-27T14:53:06.865Z,46.70
2018-06-27T14:55:35.424Z,47.60
2018-06-27T14:58:04.143Z,46.90
2018-06-27T15:00:32.627Z,46.70
2018-06-27T15:03:01.130Z,46.00
2018-06-27T15:05:29.658Z,45.20
2018-06-27T15:07:58.249Z,45.20
2018-06-27T15:10:26.665Z,45.00
2018-06-27T15:12:55.135Z,44.30
2018-06-27T15:15:23.621Z,44.70
2018-06-27T15:17:52.071Z,44.00
2018-06-27T15:20:20.662Z,44.20
2018-06-27T15:22:49.737Z,43.00
2018-06-27T15:25:18.377Z,42.60
2018-06-27T15:27:46.863Z,42.60
2018-06-27T15:30:15.432Z,42.40
2018-06-27T15:32:44.088Z,43.00
2018-06-27T15:35:12.553Z,41.70
2018-06-27T15:37:41.019Z,41.80
2018-06-27T15:40:09.491Z,41.60
2018-06-27T15:42:37.889Z,42.00
2018-06-27T15:45:06.376Z,42.30
2018-06-27T15:47:34.820Z,42.90
2018-06-27T15:50:03.938Z,42.80
2018-06-27T15:52:32.298Z,43.00
2018-06-27T15:55:00.740Z,42.50
2018-06-27T15:57:29.160Z,42.60
2018-06-27T15:59:57.639Z,42.50
2018-06-27T16:02:26.700Z,42.50
2018-06-27T16:04:55.157Z,43.30
2018-06-27T16:09:51.985Z,43.40
2018-06-27T16:12:20.483Z,43.40
2018-06-27T16:14:49.020Z,44.10
2018-06-27T16:17:17.765Z,44.40
2018-06-27T16:19:45.932Z,44.10
2018-06-27T16:22:14.446Z,44.10
2018-06-27T16:24:42.978Z,44.60
2018-06-27T16:27:12.277Z,44.80
2018-06-27T16:29:41.167Z,45.10
2018-06-27T16:32:09.621Z,45.80
2018-06-27T16:34:38.209Z,45.30
2018-06-27T16:37:06.676Z,45.80
2018-06-27T16:39:35.146Z,46.20
2018-06-27T16:42:03.605Z,46.40
2018-06-27T16:44:32.174Z,46.80
2018-06-27T16:47:01.145Z,47.20
2018-06-27T16:49:29.658Z,47.20
2018-06-27T16:51:58.129Z,46.90
2018-06-27T16:54:26.704Z,46.90
2018-06-27T16:56:55.277Z,47.20
2018-06-27T16:59:23.899Z,47.60
2018-06-27T17:01:52.431Z,47.70
2018-06-27T17:04:20.857Z,48.00
2018-06-27T17:06:49.340Z,48.30
2018-06-27T17:09:18.749Z,47.60
2018-06-27T17:11:47.273Z,48.30
2018-06-27T17:14:15.905Z,47.50
2018-06-27T17:16:44.313Z,48.20
2018-06-27T17:19:12.921Z,48.70
2018-06-27T17:21:42.253Z,48.80
2018-06-27T17:24:10.734Z,49.10
2018-06-27T17:26:39.189Z,48.40
2018-06-27T17:29:07.675Z,49.00
2018-06-27T17:34:05.783Z,48.40
2018-06-27T17:36:34.245Z,47.10
2018-06-27T17:39:03.083Z,47.00
2018-06-27T17:41:32.084Z,47.80
2018-06-27T17:44:00.549Z,48.00
2018-06-27T17:46:29.229Z,47.80
2018-06-27T17:48:58.462Z,48.40
2018-06-27T17:51:27.480Z,48.20
2018-06-27T17:53:55.988Z,48.30
2018-06-27T17:56:24.542Z,49.00
2018-06-27T17:58:53.024Z,48.10
2018-06-27T18:01:22.326Z,48.10
2018-06-27T18:03:50.818Z,48.10
2018-06-27T18:06:19.444Z,48.10
2018-06-27T18:08:48.055Z,48.10
2018-06-27T18:11:16.608Z,48.50
2018-06-27T18:13:46.120Z,48.50
2018-06-27T18:16:14.568Z,48.90
2018-06-27T18:18:43.180Z,49.00
2018-06-27T18:21:12.544Z,49.10
2018-06-27T18:23:41.076Z,49.00
2018-06-27T18:26:09.772Z,49.40
2018-06-27T18:28:38.305Z,49.80
2018-06-27T18:31:06.839Z,49.90
2018-06-27T18:33:35.369Z,50.30
2018-06-27T18:36:03.875Z,50.70
2018-06-27T18:38:32.570Z,50.60
2018-06-27T18:41:01.173Z,50.80
2018-06-27T18:43:29.706Z,50.70
2018-06-27T18:45:58.134Z,50.80
2018-06-27T18:48:27.949Z,50.70
2018-06-27T18:50:56.424Z,51.00
2018-06-27T18:53:24.922Z,51.00
2018-06-27T18:55:53.428Z,51.40
2018-06-27T18:58:21.990Z,51.70
2018-06-27T19:00:50.490Z,51.70
2018-06-27T19:03:18.990Z,52.10
2018-06-27T19:05:47.466Z,52.10
2018-06-27T19:08:16.091Z,52.20
2018-06-27T19:10:44.540Z,52.30
2018-06-27T19:13:13.256Z,52.40
2018-06-27T19:15:41.722Z,52.70
2018-06-27T19:18:11.356Z,52.80
2018-06-27T19:20:40.492Z,53.00
2018-06-27T19:23:09.492Z,53.50
2018-06-27T19:25:37.990Z,53.60
2018-06-27T19:28:06.495Z,53.80
2018-06-27T19:30:34.924Z,53.90
2018-06-27T19:33:03.381Z,54.20
2018-06-27T19:35:31.826Z,54.40
2018-06-27T19:38:00.397Z,54.40
2018-06-27T19:40:28.866Z,54.80
2018-06-27T19:42:57.329Z,55.10
2018-06-27T19:45:26.855Z,55.40
2018-06-27T19:47:55.431Z,55.30
2018-06-27T19:50:23.845Z,55.80
2018-06-27T19:52:52.345Z,56.20
2018-06-27T19:55:20.946Z,56.30
2018-06-27T19:57:49.469Z,56.60
2018-06-27T20:00:18.021Z,56.90
2018-06-27T20:02:46.734Z,57.20
2018-06-27T20:05:15.369Z,57.60
2018-06-27T20:07:43.962Z,57.90
2018-06-27T20:10:13.134Z,58.10
2018-06-27T20:12:41.743Z,58.20
2018-06-27T20:15:10.345Z,58.60
2018-06-27T20:17:38.867Z,58.70
2018-06-27T20:20:08.579Z,58.90
2018-06-27T20:22:37.140Z,59.00
2018-06-27T20:25:06.040Z,59.00
2018-06-27T20:27:34.447Z,59.20
2018-06-27T20:30:02.989Z,59.30
2018-06-27T20:32:31.474Z,59.90
2018-06-27T20:34:59.901Z,60.50
2018-06-27T20:37:28.377Z,60.90
2018-06-27T20:39:56.815Z,60.60
2018-06-27T20:42:25.251Z,60.70
2018-06-27T20:44:53.673Z,60.80
2018-06-27T20:47:22.238Z,60.70
2018-06-27T20:49:50.625Z,61.20
2018-06-27T20:52:19.185Z,61.90
2018-06-27T20:54:47.803Z,62.40
2018-06-27T20:57:16.289Z,62.70
2018-06-27T20:59:44.713Z,63.00
2018-06-27T21:02:13.231Z,63.70
2018-06-27T21:04:42.007Z,63.80
2018-06-27T21:07:10.540Z,63.50
2018-06-27T21:09:39.041Z,63.60
2018-06-27T21:12:07.540Z,64.10
2018-06-27T21:14:36.123Z,63.80
2018-06-27T21:17:04.760Z,64.30
2018-06-27T21:19:33.423Z,64.60
2018-06-27T21:22:02.050Z,64.40
2018-06-27T21:24:30.832Z,65.10
2018-06-27T21:29:27.541Z,66.20
2018-06-27T21:31:56.278Z,66.40
2018-06-27T21:34:24.740Z,66.70
2018-06-27T21:36:53.273Z,67.10
2018-06-27T21:39:21.746Z,67.20
2018-06-27T21:41:50.380Z,67.40
2018-06-27T21:44:18.929Z,67.70
2018-06-27T21:46:47.453Z,67.80
2018-06-27T21:49:15.896Z,68.10
2018-06-27T21:51:44.361Z,68.70
2018-06-27T21:54:12.811Z,68.80
2018-06-27T21:59:09.496Z,68.90
2018-06-27T22:01:38.032Z,69.20
2018-06-27T22:04:06.505Z,69.00
2018-06-27T22:06:35.025Z,69.10
2018-06-27T22:09:03.879Z,69.40
2018-06-27T22:11:32.310Z,69.40
2018-06-27T22:14:00.844Z,69.80
2018-06-27T22:16:29.297Z,70.80
2018-06-27T22:18:57.789Z,70.30
2018-06-27T22:21:26.369Z,70.30
2018-06-27T22:23:54.981Z,70.60
2018-06-27T22:26:24.052Z,70.80
2018-06-27T22:28:52.980Z,71.00
2018-06-27T22:31:21.417Z,71.30
2018-06-27T22:33:49.982Z,71.60
2018-06-27T22:36:18.496Z,71.50
2018-06-27T22:38:46.929Z,71.70
2018-06-27T22:41:15.411Z,71.90
2018-06-27T22:43:43.942Z,72.10
2018-06-27T22:46:12.396Z,72.10
2018-06-27T22:48:40.846Z,72.60
2018-06-27T22:51:09.297Z,72.10
2018-06-27T22:53:38.560Z,72.30
2018-06-27T22:56:06.991Z,72.50
2018-06-27T22:58:35.452Z,72.50
2018-06-27T23:01:03.860Z,72.80
2018-06-27T23:03:32.312Z,73.00
2018-06-27T23:06:00.990Z,73.20
2018-06-27T23:08:29.584Z,73.50
2018-06-27T23:10:58.058Z,73.70
2018-06-27T23:13:26.531Z,74.10
2018-06-27T23:15:54.940Z,74.50
2018-06-27T23:18:23.438Z,74.70
2018-06-27T23:20:51.866Z,75.10
2018-06-27T23:23:20.346Z,75.70
2018-06-27T23:25:48.776Z,75.70
2018-06-27T23:28:17.265Z,76.30
2018-06-27T23:30:45.953Z,75.60
2018-06-27T23:33:14.437Z,75.30
2018-06-27T23:35:42.847Z,75.40
2018-06-27T23:38:11.369Z,75.30
2018-06-27T23:40:39.929Z,75.20
2018-06-27T23:43:08.416Z,75.40
2018-06-27T23:45:36.900Z,75.80
2018-06-27T23:48:05.580Z,76.00
2018-06-27T23:50:33.990Z,76.30
2018-06-27T23:53:02.467Z,76.80
2018-06-27T23:55:30.951Z,77.30
2018-06-27T23:57:59.365Z,77.40
